createdAt,value
2022-08-20T00:00:29.026Z,16.80
2022-08-20T00:02:59.169Z,16.80
2022-08-20T00:05:35.017Z,16.70
2022-08-20T00:08:04.232Z,16.70
2022-08-20T00:10:31.893Z,16.60
2022-08-20T00:12:58.909Z,16.60
2022-08-20T00:15:32.844Z,16.60
2022-08-20T00:18:00.298Z,16.60
2022-08-20T00:20:29.502Z,16.50
2022-08-20T00:22:57.485Z,16.50
2022-08-20T00:25:26.820Z,16.40
2022-08-20T00:27:53.931Z,16.40
2022-08-20T00:30:21.630Z,16.40
2022-08-20T00:32:52.063Z,16.40
2022-08-20T00:35:20.951Z,16.40
2022-08-20T00:37:48.160Z,16.40
2022-08-20T00:40:22.496Z,16.30
2022-08-20T00:42:59.087Z,16.30
2022-08-20T00:45:30.633Z,16.30
2022-08-20T00:47:57.947Z,16.20
2022-08-20T00:50:34.311Z,16.20
2022-08-20T00:53:02.884Z,16.20
2022-08-20T00:55:31.739Z,16.20
2022-08-20T00:58:04.445Z,16.10
2022-08-20T01:00:34.205Z,16.10
2022-08-20T01:03:01.399Z,16.10
2022-08-20T01:05:29.819Z,16.10
2022-08-20T01:07:57.445Z,16.00
2022-08-20T01:10:28.104Z,16.00
2022-08-20T01:12:59.435Z,16.00
2022-08-20T01:15:31.894Z,16.00
2022-08-20T01:17:59.989Z,15.90
2022-08-20T01:20:29.749Z,15.90
2022-08-20T01:23:34.531Z,15.80
2022-08-20T01:26:22.572Z,15.80
2022-08-20T01:29:01.875Z,15.80
2022-08-20T01:31:31.538Z,15.70
2022-08-20T01:34:00.003Z,15.70
2022-08-20T01:36:46.473Z,15.60
2022-08-20T01:39:18.612Z,15.60
2022-08-20T01:41:51.927Z,15.50
2022-08-20T01:44:20.248Z,15.50
2022-08-20T01:46:48.510Z,15.50
2022-08-20T01:49:23.528Z,15.40
2022-08-20T01:51:52.214Z,15.40
2022-08-20T01:54:19.438Z,15.30
2022-08-20T01:56:57.505Z,15.30
2022-08-20T01:59:24.752Z,15.20
2022-08-20T02:01:52.128Z,15.10
2022-08-20T02:04:19.762Z,15.10
2022-08-20T02:06:58.941Z,15.10
2022-08-20T02:09:32.328Z,15.10
2022-08-20T02:11:59.690Z,15.10
2022-08-20T02:14:27.354Z,15.00
2022-08-20T02:16:55.672Z,15.00
2022-08-20T02:19:27.688Z,15.00
2022-08-20T02:21:58.938Z,15.00
2022-08-20T02:24:30.138Z,15.00
2022-08-20T02:26:57.385Z,15.00
2022-08-20T02:29:27.530Z,15.00
2022-08-20T02:32:24.340Z,15.00
2022-08-20T02:34:42.529Z,14.90
2022-08-20T02:37:09.604Z,14.90
2022-08-20T02:39:36.744Z,14.90
2022-08-20T02:42:05.516Z,14.90
2022-08-20T02:44:32.577Z,14.90
2022-08-20T02:47:01.053Z,14.90
2022-08-20T02:49:28.350Z,14.90
2022-08-20T02:51:58.037Z,14.90
2022-08-20T02:54:25.062Z,14.90
2022-08-20T02:56:52.577Z,14.80
2022-08-20T02:59:20.104Z,14.90
2022-08-20T03:01:59.519Z,14.80
2022-08-20T03:04:32.042Z,14.80
2022-08-20T03:06:59.416Z,14.80
2022-08-20T03:09:26.559Z,14.80
2022-08-20T03:11:56.801Z,14.80
2022-08-20T03:14:25.556Z,14.80
2022-08-20T03:16:52.584Z,14.80
2022-08-20T03:19:19.806Z,14.80
2022-08-20T03:21:47.003Z,14.70
2022-08-20T03:24:14.126Z,14.70
2022-08-20T03:26:41.301Z,14.70
2022-08-20T03:29:08.320Z,14.70
2022-08-20T03:31:35.357Z,14.60
2022-08-20T03:34:02.605Z,14.60
2022-08-20T03:36:29.786Z,14.60
2022-08-20T03:38:57.980Z,14.50
2022-08-20T03:41:28.109Z,14.50
2022-08-20T03:43:58.606Z,14.50
2022-08-20T03:46:26.641Z,14.50
2022-08-20T03:49:00.388Z,14.50
2022-08-20T03:51:31.087Z,14.40
2022-08-20T03:53:58.270Z,14.40
2022-08-20T03:56:26.114Z,14.40
2022-08-20T03:58:53.273Z,14.40
2022-08-20T04:01:45.394Z,14.30
2022-08-20T04:04:12.686Z,14.40
2022-08-20T04:06:40.543Z,14.40
2022-08-20T04:09:09.701Z,14.30
2022-08-20T04:11:38.574Z,14.30
2022-08-20T04:14:05.669Z,14.40
2022-08-20T04:16:33.533Z,14.30
2022-08-20T04:19:02.558Z,14.30
2022-08-20T04:21:33.208Z,14.30
2022-08-20T04:24:02.462Z,14.20
2022-08-20T04:26:29.780Z,14.20
2022-08-20T04:28:57.436Z,14.20
2022-08-20T04:31:33.998Z,14.10
2022-08-20T04:34:02.350Z,14.10
2022-08-20T04:36:29.644Z,14.00
2022-08-20T04:38:56.792Z,14.10
2022-08-20T04:41:26.008Z,14.10
2022-08-20T04:43:54.305Z,14.00
2022-08-20T04:46:23.957Z,14.00
2022-08-20T04:48:51.347Z,14.00
2022-08-20T04:51:18.853Z,14.00
2022-08-20T04:53:52.183Z,14.00
2022-08-20T04:56:24.178Z,14.00
2022-08-20T04:58:53.286Z,14.00
2022-08-20T05:01:20.618Z,14.00
2022-08-20T05:03:48.107Z,14.00
2022-08-20T05:06:16.323Z,14.00
2022-08-20T05:08:43.886Z,14.00
2022-08-20T05:11:33.381Z,14.00
2022-08-20T05:13:58.546Z,14.00
2022-08-20T05:16:29.108Z,14.10
2022-08-20T05:18:59.057Z,14.10
2022-08-20T05:21:26.604Z,14.10
2022-08-20T05:23:53.694Z,14.10
2022-08-20T05:26:20.808Z,14.10
2022-08-20T05:28:54.031Z,14.10
2022-08-20T05:31:31.777Z,14.20
2022-08-20T05:34:02.901Z,14.30
2022-08-20T05:36:30.013Z,14.30
2022-08-20T05:38:57.355Z,14.30
2022-08-20T05:41:28.727Z,14.40
2022-08-20T05:44:02.145Z,14.50
2022-08-20T05:46:31.744Z,14.60
2022-08-20T05:49:00.203Z,14.70
2022-08-20T05:51:28.626Z,14.70
2022-08-20T05:53:59.613Z,14.80
2022-08-20T05:56:30.907Z,14.90
2022-08-20T05:59:01.223Z,15.00
2022-08-20T06:01:28.543Z,15.00
2022-08-20T06:04:14.644Z,15.10
2022-08-20T06:06:45.880Z,15.20
2022-08-20T06:09:15.422Z,15.20
2022-08-20T06:11:42.547Z,15.30
2022-08-20T06:14:09.550Z,15.40
2022-08-20T06:16:37.135Z,15.40
2022-08-20T06:19:05.481Z,15.50
2022-08-20T06:21:32.502Z,15.60
2022-08-20T06:24:01.033Z,15.60
2022-08-20T06:26:30.842Z,15.70
2022-08-20T06:29:02.467Z,15.80
2022-08-20T06:31:29.725Z,15.90
2022-08-20T06:33:57.127Z,15.90
2022-08-20T06:36:25.242Z,16.00
2022-08-20T06:38:55.023Z,16.10
2022-08-20T06:41:22.132Z,16.20
2022-08-20T06:43:49.250Z,16.30
2022-08-20T06:46:16.424Z,16.40
2022-08-20T06:48:43.513Z,16.50
2022-08-20T06:51:10.776Z,16.60
2022-08-20T06:53:38.017Z,16.70
2022-08-20T06:56:05.161Z,16.70
2022-08-20T06:58:36.889Z,16.90
2022-08-20T07:01:10.946Z,17.00
2022-08-20T07:03:54.101Z,17.10
2022-08-20T07:06:25.067Z,17.20
2022-08-20T07:08:52.251Z,17.20
2022-08-20T07:11:26.563Z,17.30
2022-08-20T07:13:56.475Z,17.30
2022-08-20T07:16:23.692Z,17.40
2022-08-20T07:18:50.852Z,17.40
2022-08-20T07:21:18.217Z,17.40
2022-08-20T07:23:45.490Z,17.50
2022-08-20T07:33:25.129Z,17.80
2022-08-20T07:35:52.327Z,17.90
2022-08-20T07:38:24.907Z,18.00
2022-08-20T07:40:53.161Z,18.00
2022-08-20T07:43:21.860Z,18.10
2022-08-20T07:45:49.815Z,18.10
2022-08-20T07:48:31.275Z,18.10
2022-08-20T07:51:00.431Z,18.20
2022-08-20T07:53:29.362Z,18.20
2022-08-20T07:56:00.145Z,18.30
2022-08-20T07:58:29.572Z,18.40
2022-08-20T08:01:00.831Z,18.50
2022-08-20T08:03:39.951Z,18.60
2022-08-20T08:06:18.269Z,18.60
2022-08-20T08:09:08.374Z,18.70
2022-08-20T08:11:38.002Z,18.80
2022-08-20T08:14:06.965Z,18.80
2022-08-20T08:16:35.481Z,18.80
2022-08-20T08:19:02.855Z,18.90
2022-08-20T08:21:30.938Z,19.00
2022-08-20T08:23:58.543Z,19.10
2022-08-20T08:26:29.016Z,19.10
2022-08-20T08:28:58.370Z,19.20
2022-08-20T08:31:26.220Z,19.20
2022-08-20T08:33:53.479Z,19.30
2022-08-20T08:36:20.687Z,19.40
2022-08-20T08:38:48.047Z,19.50
2022-08-20T08:41:49.695Z,19.60
2022-08-20T08:44:23.407Z,19.70
2022-08-20T08:46:59.249Z,19.70
2022-08-20T08:49:37.501Z,19.90
2022-08-20T08:52:23.285Z,19.90
2022-08-20T08:54:55.446Z,20.10
2022-08-20T08:57:26.559Z,20.30
2022-08-20T09:00:10.282Z,20.30
2022-08-20T09:02:38.949Z,20.50
2022-08-20T09:05:14.946Z,20.70
2022-08-20T09:07:47.417Z,20.70
2022-08-20T09:10:14.645Z,20.70
2022-08-20T09:12:47.131Z,20.60
2022-08-20T09:15:16.990Z,20.70
2022-08-20T09:17:44.218Z,20.90
2022-08-20T09:20:11.609Z,21.10
2022-08-20T09:22:38.756Z,21.30
2022-08-20T09:25:06.597Z,21.40
2022-08-20T09:27:33.794Z,21.50
2022-08-20T09:30:01.025Z,21.60
2022-08-20T09:32:28.283Z,21.70
2022-08-20T09:34:56.589Z,21.80
2022-08-20T09:37:25.102Z,21.70
2022-08-20T09:39:52.308Z,21.70
2022-08-20T09:42:21.293Z,21.90
2022-08-20T09:44:48.382Z,22.10
2022-08-20T09:47:15.888Z,22.40
2022-08-20T09:49:43.322Z,22.40
2022-08-20T09:52:11.515Z,22.20
2022-08-20T09:54:38.958Z,22.10
2022-08-20T09:57:13.787Z,22.20
2022-08-20T09:59:40.974Z,22.20
2022-08-20T10:02:08.094Z,22.30
2022-08-20T10:04:35.346Z,22.30
2022-08-20T10:07:02.532Z,22.30
2022-08-20T10:09:29.578Z,22.20
2022-08-20T10:11:56.674Z,22.30
2022-08-20T10:14:23.821Z,22.40
2022-08-20T10:16:59.253Z,22.30
2022-08-20T10:19:27.304Z,22.10
2022-08-20T10:21:56.794Z,22.20
2022-08-20T10:24:26.175Z,22.40
2022-08-20T10:26:58.961Z,22.40
2022-08-20T10:29:29.390Z,22.60
2022-08-20T10:31:59.654Z,22.70
2022-08-20T10:34:26.788Z,22.70
2022-08-20T10:36:54.464Z,22.60
2022-08-20T10:39:21.765Z,22.50
2022-08-20T10:41:48.860Z,22.30
2022-08-20T10:44:17.786Z,22.10
2022-08-20T10:46:45.977Z,22.30
2022-08-20T10:49:13.097Z,22.40
2022-08-20T10:51:40.583Z,22.70
2022-08-20T10:54:08.261Z,22.80
2022-08-20T10:56:40.020Z,23.00
2022-08-20T10:59:07.357Z,23.00
2022-08-20T11:01:39.129Z,23.00
2022-08-20T11:04:06.256Z,22.90
2022-08-20T11:06:33.421Z,22.90
2022-08-20T11:09:00.701Z,22.80
2022-08-20T11:11:28.284Z,22.90
2022-08-20T11:13:55.870Z,23.20
2022-08-20T11:16:23.609Z,23.40
2022-08-20T11:18:50.760Z,23.70
2022-08-20T11:21:17.899Z,23.80
2022-08-20T11:23:45.108Z,24.00
2022-08-20T11:26:19.194Z,24.00
2022-08-20T11:28:46.454Z,23.90
2022-08-20T11:31:13.515Z,23.70
2022-08-20T11:33:40.569Z,23.80
2022-08-20T11:36:08.225Z,23.70
2022-08-20T11:38:35.470Z,23.90
2022-08-20T11:41:02.618Z,23.80
2022-08-20T11:43:29.999Z,23.90
2022-08-20T11:45:57.289Z,24.20
2022-08-20T11:48:26.698Z,24.30
2022-08-20T11:50:54.618Z,24.20
2022-08-20T11:53:22.359Z,24.10
2022-08-20T11:55:49.583Z,24.00
2022-08-20T11:58:16.928Z,23.80
2022-08-20T12:00:44.096Z,23.90
2022-08-20T12:03:12.139Z,24.00
2022-08-20T12:05:41.010Z,24.10
2022-08-20T12:08:08.788Z,24.30
2022-08-20T12:10:36.697Z,24.70
2022-08-20T12:13:04.801Z,25.00
2022-08-20T12:15:33.375Z,25.30
2022-08-20T12:18:01.321Z,25.40
2022-08-20T12:20:28.571Z,25.40
2022-08-20T12:22:59.096Z,25.70
2022-08-20T12:25:26.764Z,25.70
2022-08-20T12:27:54.097Z,25.80
2022-08-20T12:30:23.594Z,25.80
2022-08-20T12:32:50.801Z,25.60
2022-08-20T12:35:18.452Z,25.60
2022-08-20T12:37:46.015Z,25.70
2022-08-20T12:40:32.536Z,25.70
2022-08-20T12:43:01.828Z,25.80
2022-08-20T12:45:29.483Z,25.70
2022-08-20T12:48:10.652Z,25.40
2022-08-20T12:50:38.991Z,25.40
2022-08-20T12:53:06.034Z,25.30
2022-08-20T12:55:33.291Z,25.50
2022-08-20T12:58:02.744Z,25.40
2022-08-20T13:00:35.099Z,25.30
2022-08-20T13:03:03.395Z,25.20
2022-08-20T13:05:30.689Z,25.10
2022-08-20T13:08:01.056Z,24.90
2022-08-20T13:10:31.283Z,24.80
2022-08-20T13:12:58.834Z,24.90
2022-08-20T13:15:29.284Z,24.80
2022-08-20T13:17:58.392Z,25.00
2022-08-20T13:20:34.041Z,25.00
2022-08-20T13:23:03.356Z,25.20
2022-08-20T13:25:30.585Z,25.30
2022-08-20T13:27:58.524Z,25.20
2022-08-20T13:30:28.468Z,24.90
2022-08-20T13:32:58.566Z,24.90
2022-08-20T13:35:28.752Z,24.90
2022-08-20T13:37:58.469Z,25.00
2022-08-20T13:40:29.227Z,25.10
2022-08-20T13:43:04.562Z,25.10
2022-08-20T13:45:34.564Z,25.40
2022-08-20T13:48:02.760Z,25.60
2022-08-20T13:50:33.843Z,25.80
2022-08-20T13:53:08.338Z,25.80
2022-08-20T13:57:04.281Z,25.80
2022-08-20T14:00:28.095Z,25.80
2022-08-20T14:05:53.627Z,26.30
2022-08-20T14:08:43.900Z,26.50
2022-08-20T14:11:12.805Z,26.20
2022-08-20T14:14:08.518Z,26.00
2022-08-20T14:16:51.921Z,26.10
2022-08-20T14:19:27.686Z,25.90
2022-08-20T14:21:55.064Z,25.80
2022-08-20T14:24:24.707Z,25.80
2022-08-20T14:26:51.926Z,25.90
2022-08-20T14:29:22.387Z,25.90
2022-08-20T14:31:49.971Z,25.80
2022-08-20T14:34:17.287Z,25.90
2022-08-20T14:36:44.550Z,25.90
2022-08-20T14:39:19.859Z,25.90
2022-08-20T14:41:49.071Z,26.10
2022-08-20T14:44:16.372Z,25.90
2022-08-20T14:46:44.029Z,25.50
2022-08-20T14:49:35.046Z,25.50
2022-08-20T14:52:02.281Z,25.50
2022-08-20T14:54:29.582Z,25.30
2022-08-20T14:57:01.846Z,25.30
2022-08-20T14:59:32.708Z,25.50
2022-08-20T15:02:00.219Z,25.80
2022-08-20T15:04:27.371Z,26.10
2022-08-20T15:06:54.771Z,26.40
2022-08-20T15:09:22.020Z,26.50
2022-08-20T15:11:49.286Z,26.20
2022-08-20T15:14:18.444Z,26.10
2022-08-20T15:16:55.993Z,26.00
2022-08-20T15:19:23.379Z,26.00
2022-08-20T15:21:50.506Z,26.30
2022-08-20T15:24:19.579Z,26.50
2022-08-20T15:26:46.983Z,26.70
2022-08-20T15:29:23.041Z,26.70
2022-08-20T15:31:51.445Z,26.60
2022-08-20T15:34:20.061Z,26.50
2022-08-20T15:36:48.858Z,26.10
2022-08-20T15:39:17.693Z,25.90
2022-08-20T15:41:44.787Z,26.10
2022-08-20T15:44:12.023Z,26.20
2022-08-20T15:46:47.349Z,26.00
2022-08-20T15:49:17.502Z,25.90
2022-08-20T15:51:52.787Z,25.90
2022-08-20T15:54:26.686Z,26.10
2022-08-20T15:57:32.400Z,26.30
2022-08-20T16:00:14.504Z,26.50
2022-08-20T16:03:19.477Z,26.60
2022-08-20T16:06:22.780Z,26.10
2022-08-20T16:09:11.200Z,25.70
2022-08-20T16:12:06.303Z,25.30
2022-08-20T16:14:41.860Z,25.10
2022-08-20T16:17:10.156Z,25.10
2022-08-20T16:19:55.781Z,25.30
2022-08-20T16:22:23.035Z,25.30
2022-08-20T16:24:50.150Z,25.40
2022-08-20T16:27:35.515Z,25.40
2022-08-20T16:30:06.759Z,25.70
2022-08-20T16:32:42.522Z,25.70
2022-08-20T16:35:30.638Z,25.60
2022-08-20T16:38:02.986Z,25.50
2022-08-20T16:40:53.888Z,26.10
2022-08-20T16:43:32.343Z,26.10
2022-08-20T16:46:02.891Z,26.00
2022-08-20T16:48:38.539Z,26.80
2022-08-20T16:51:14.046Z,26.50
2022-08-20T16:53:44.007Z,26.40
2022-08-20T16:56:13.503Z,26.00
2022-08-20T16:58:49.587Z,26.60
2022-08-20T17:01:21.220Z,28.30
2022-08-20T17:03:54.855Z,29.60
2022-08-20T17:06:38.176Z,30.20
2022-08-20T17:09:12.550Z,30.70
2022-08-20T17:11:39.756Z,30.60
2022-08-20T17:14:12.424Z,30.80
2022-08-20T17:16:51.164Z,30.30
2022-08-20T17:19:32.647Z,29.30
2022-08-20T17:22:11.192Z,27.70
2022-08-20T17:24:38.711Z,26.90
2022-08-20T17:27:15.182Z,26.20
2022-08-20T17:29:50.723Z,25.90
2022-08-20T17:32:31.519Z,25.50
2022-08-20T17:35:00.948Z,25.30
2022-08-20T17:37:39.299Z,24.90
2022-08-20T17:40:16.025Z,24.60
2022-08-20T17:42:58.889Z,24.40
2022-08-20T17:45:33.116Z,24.20
2022-08-20T17:48:01.289Z,23.90
2022-08-20T17:50:39.497Z,23.80
2022-08-20T17:53:29.498Z,23.60
2022-08-20T17:56:23.840Z,23.40
2022-08-20T17:59:33.692Z,23.20
2022-08-20T18:02:13.408Z,23.10
2022-08-20T18:04:41.436Z,22.90
2022-08-20T18:07:11.703Z,22.80
2022-08-20T18:09:46.686Z,22.70
2022-08-20T18:12:37.165Z,22.60
2022-08-20T18:15:22.533Z,22.50
2022-08-20T18:17:59.031Z,22.40
2022-08-20T18:20:50.130Z,22.30
2022-08-20T18:23:38.031Z,22.30
2022-08-20T18:26:32.712Z,22.30
2022-08-20T18:29:18.414Z,22.30
2022-08-20T18:31:51.254Z,22.20
2022-08-20T18:34:42.212Z,22.20
2022-08-20T18:37:41.724Z,22.20
2022-08-20T18:40:33.579Z,22.10
2022-08-20T18:44:09.315Z,22.00
2022-08-20T18:52:37.677Z,21.80
2022-08-20T18:56:34.409Z,21.60
2022-08-20T19:09:01.735Z,21.10
2022-08-20T19:12:14.777Z,21.00
2022-08-20T19:19:36.973Z,20.90
2022-08-20T19:22:28.454Z,20.80
2022-08-20T19:25:10.863Z,20.70
2022-08-20T19:27:44.030Z,20.70
2022-08-20T19:30:29.505Z,20.60
2022-08-20T19:33:30.477Z,20.50
2022-08-20T19:36:37.150Z,20.50
2022-08-20T19:43:11.851Z,20.30
2022-08-20T19:52:30.559Z,20.10
2022-08-20T19:55:15.070Z,20.10
2022-08-20T19:57:52.865Z,20.00
2022-08-20T20:00:28.718Z,19.90
2022-08-20T20:03:23.095Z,19.90
2022-08-20T20:06:17.100Z,19.80
2022-08-20T20:09:04.098Z,19.70
2022-08-20T20:11:35.439Z,19.70
2022-08-20T20:14:17.867Z,19.60
2022-08-20T20:16:52.115Z,19.60
2022-08-20T20:19:27.964Z,19.50
2022-08-20T20:22:20.543Z,19.50
2022-08-20T20:25:13.198Z,19.50
2022-08-20T20:27:41.230Z,19.40
2022-08-20T20:30:14.319Z,19.40
2022-08-20T20:32:49.870Z,19.30
2022-08-20T20:35:48.262Z,19.20
2022-08-20T20:38:31.925Z,19.20
2022-08-20T20:41:11.432Z,19.10
2022-08-20T20:43:42.307Z,19.10
2022-08-20T20:46:29.003Z,19.10
2022-08-20T20:49:26.593Z,19.00
2022-08-20T20:52:14.965Z,19.00
2022-08-20T20:54:52.326Z,19.00
2022-08-20T20:57:42.603Z,18.90
2022-08-20T21:00:31.821Z,18.80
2022-08-20T21:06:40.085Z,18.80
2022-08-20T21:09:13.351Z,18.70
2022-08-20T21:11:43.479Z,18.70
2022-08-20T21:14:14.516Z,18.60
2022-08-20T21:16:43.619Z,18.60
2022-08-20T21:19:14.201Z,18.60
2022-08-20T21:22:04.396Z,18.60
2022-08-20T21:24:39.930Z,18.50
2022-08-20T21:27:17.632Z,18.40
2022-08-20T21:32:34.503Z,18.40
2022-08-20T21:35:11.133Z,18.30
2022-08-20T21:38:11.640Z,18.30
2022-08-20T21:40:46.188Z,18.30
2022-08-20T21:43:22.640Z,18.20
2022-08-20T21:46:02.356Z,18.20
2022-08-20T21:48:31.891Z,18.20
2022-08-20T21:51:06.225Z,18.20
2022-08-20T21:53:39.914Z,18.10
2022-08-20T21:56:42.630Z,18.10
2022-08-20T21:59:10.327Z,18.10
2022-08-20T22:04:35.857Z,18.00
2022-08-20T22:07:08.890Z,18.00
2022-08-20T22:09:49.247Z,17.90
2022-08-20T22:12:23.759Z,17.90
2022-08-20T22:14:51.685Z,17.90
2022-08-20T22:17:29.574Z,17.80
2022-08-20T22:20:02.784Z,17.80
2022-08-20T22:22:33.453Z,17.80
2022-08-20T22:39:12.078Z,17.70
2022-08-20T22:41:41.937Z,17.60
2022-08-20T22:44:12.038Z,17.60
2022-08-20T22:46:44.990Z,17.50
2022-08-20T22:51:57.364Z,17.50
2022-08-20T22:59:15.341Z,17.40
2022-08-20T23:01:46.728Z,17.40
2022-08-20T23:04:15.120Z,17.40
2022-08-20T23:06:42.714Z,17.40
2022-08-20T23:09:12.884Z,17.40
2022-08-20T23:11:40.589Z,17.30
2022-08-20T23:14:10.382Z,17.30
2022-08-20T23:16:45.346Z,17.30
2022-08-20T23:19:17.149Z,17.30
2022-08-20T23:21:44.509Z,17.30
2022-08-20T23:26:58.760Z,17.20
2022-08-20T23:29:36.020Z,17.20
2022-08-20T23:32:04.466Z,17.20
2022-08-20T23:34:31.840Z,17.10
2022-08-20T23:36:59.449Z,17.10
2022-08-20T23:39:31.515Z,17.10
2022-08-20T23:42:02.920Z,17.10
2022-08-20T23:44:38.513Z,17.00
2022-08-20T23:47:06.527Z,17.00
2022-08-20T23:49:33.940Z,17.00
2022-08-20T23:52:01.382Z,17.00
2022-08-20T23:54:32.190Z,17.00
2022-08-20T23:56:59.840Z,17.00
2022-08-20T23:59:30.874Z,16.90
